Sacre-Coeur, Canada
Current Conditions -  °F | °C
As of 6:00 PM on Monday 22 Dec 2014 (Local Time) from CYYY Reporting Station
Light Snow Light Snow  
Wind Chill: 21°   Ceiling: 2000
Heat Index: 21°   Visibility: 15mi
Dew Point: 18°   Wind: 3mph
Humidity: 86%   Direction: 170°S
Pressure: 30.43"   Gusts: NA
Location:  48.43°N, 68.58°W
Report Text: CYYY 222300Z 17003KT 15SM -SN OVC020 M06/M08 A3043 RMK SC8 SLP309
Loading
Personal Weather Stations






























Interactive Weather Map New forecast layout! Learn more

10-Day Weather Forecast

Advertisements
Track Severe Weather on mobile